Atqasuk Edward Burnell Sr Memorial Airport
PATQ : rendu visible

Aérodrome :











RETROUVEZ-NOUS SUR...

 
LOGIN :

S'inscrire | Disclaimer

   EN    FR    IT 

 









Légende :    VFR   VFR Marginal   IFR   IFR Intensif   IFR Très Intensif
Visi : 
Plafond : 
>= 8 km
>= 3000ft
5 à 8 km
1000 à 3000 ft
1500m à 5 km
500 à 1000 ft
800 à 1500m
200 à 500 ft
< 800m
< 200 ft
Symboles :   Orages  Brouillard  Fortes neiges  Fortes précipitations  Vent > 20 kt






- Altitude de l'aérodrome : 96 ft
- Code IATA : ATK


PATQ - Atqasuk Edward Burnell Sr Memorial

DERNIER METAR :
  • 120956Z AUTO 03008KT 10SM OVC004 02/02 A2985 RMK AO2 SLP112 T00220017 FZRANO TSNO

METARs EXPIRÉS :
  • 120856Z AUTO 04008KT 10SM OVC008 03/02 A2986 RMK AO2 SLP113 T00280017 400670017 58007 TSNO
  • 120842Z AUTO 03008KT 10SM OVC008 03/01 A2986 RMK AO2 TSNO
  • 120756Z AUTO 03008KT 6SM BR OVC010 03/02 A2986 RMK AO2 SLP116 T00330017 TSNO

TAF N/A
FIR PAZA / Amérique du Nord



MET'MAP, la Météo Aéronautique d'un coup d'oeil ! - Copyright ORBIFLY Décembre 2007 - Disclaimer

ORBIFLY MET'MAP TEAM :

Programmation & Développement : Alexandra Zaïnal
Sur une idée originale de : Baudouin d'Aumeries
Assistance à la programmation : Marc-Olivier Méhu
Soutien technique & logistique : Manuel Goepfert

Contact : metmap@orbifly.com




SOURCES & CREDITS :

   NOAA       Earth
Advisory